Airfield :
LOGIN :

Register | Disclaimer

   EN    FR    IT 

 










Legend :    VFR   Marginal VFR   IFR   Intensive IFR   Very Intensive IFR
Visi :
Ceiling :
>= 8 km
>= 3000ft
5 to 8 km
1000 to 3000 ft
1500m to 5 km
500 to 1000 ft
800 to 1500m
200 to 500 ft
< 800m
< 200 ft
Symbols :   Thunderstorms  Fog  Heavy snow  Heavy precipitations  Wind > 20 kt
SIGMETs :     Misc.  Thunderstorms  Icing  Turbulence  Mountain Waves  Volcanic Ashes







- Airport Elevation : 424 ft
- IATA code : QGY


LHPR - Györ Per

CURRENT METAR :
  • 220845Z 24003KT 180V290 CAVOK 08/06 Q1015 RMK BLU

EXPIRED METARs :
  • 220815Z VRB02KT CAVOK 06/05 Q1015 RMK BLU
  • 220745Z 00000KT CAVOK 06/04 Q1015 RMK BLU
  • 220715Z 25003KT 200V300 CAVOK 07/04 Q1015 RMK BLU
  • 220645Z 25004KT 220V280 CAVOK 06/04 Q1014 RMK BLU
  • 220615Z 24006KT CAVOK 06/03 Q1014 RMK BLU

TAF TAF LHPR
Valid from the 22 at 09:00 until the 22 at 18:00 UTC


220815Z 2209/2218 VRB03KT CAVOK
TEMPO 2209/2215 24008KT
No reported NOTAMs for that airfield.



MET'MAP, your aeronautical weather chart ! - Copyright ORBIFLY December 2007 - Disclaimer

ORBIFLY MET'MAP TEAM :

Programming & Development : Alexandra Zaïnal
Concept & Development : Baudouin d'Aumeries
Co-Development & Prog : Marc-Olivier Méhu
Technical & hardware support : Manuel Goepfert

Contact : metmap@orbifly.com




SOURCES & CREDITS :

   NOAA